Flight Track Log - Related Links

Times and Time Zones

All times are in EDT time to prevent confusion due to time zone crossing. See the FLG3862 flight status page for this flight to view local times or setup timezone preferences in your user account.

Time Position Orientation Groundspeed Altitude Reporting Facility
EDT Latitude Longitude Course Direction KTS MPH feet Rate Location/Type
Tue 10:39:46 AM 42.1975 -83.3581 94° East 164 189 1,500  Level Cleveland Center
Tue 10:40:15 AM 42.1781 -83.3525 168° South 181 208 2,600 2,204 Climbing FAA TRACON SMA TRACON (SMA)
Tue 10:40:35 AM 42.1619 -83.3506 175° South 195 224 3,300 2,700 Climbing FAA TRACON SMA TRACON (SMA)
Tue 10:40:55 AM 42.1408 -83.3464 172° South 200 230 4,400 2,195 Climbing FAA TRACON SMA TRACON (SMA)
Tue 10:41:16 AM 42.1214 -83.3425 172° South 225 259 4,800 1,500 Climbing FAA TRACON SMA TRACON (SMA)
Tue 10:41:35 AM 42.1031 -83.3244 144° Southeast 276 318 5,400 2,100 Climbing FAA TRACON SMA TRACON (SMA)
Tue 10:41:56 AM 42.0886 -83.2989 127° Southeast 292 336 6,200 2,780 Climbing FAA TRACON SMA TRACON (SMA)
Tue 10:42:00 AM 42.2934 -82.8666 75° East  Level FlightAware Approximate
Tue 10:42:16 AM 42.0694 -83.2639 126° Southeast 294 338 7,300  Level FAA TRACON SMA TRACON (SMA)
Tue 10:42:36 AM 42.0547 -83.2356 125° Southeast 297 342 8,200 2,550 Climbing FAA TRACON SMA TRACON (SMA)
Tue 10:42:56 AM 42.0419 -83.2011 117° Southeast 323 372 9,000 2,400 Climbing FAA TRACON SMA TRACON (SMA)
Tue 10:43:00 AM 42.3212 -82.7045 82° East  Level FlightAware Approximate
Tue 10:43:16 AM 42.0394 -83.1575 94° East 324 373 9,800  Level FAA TRACON SMA TRACON (SMA)
Tue 10:43:36 AM 42.0494 -83.1192 71° East 356 410 10,000 300 Climbing FAA TRACON SMA TRACON (SMA)
Tue 10:43:56 AM 42.0647 -83.0867 58° Northeast 376 433 10,000 600 Level FAA TRACON SMA TRACON (SMA)
Tue 10:44:00 AM 42.3439 -82.5411 71° East  Level FlightAware Approximate
Tue 10:44:16 AM 42.0894 -83.0383 55° Northeast 377 434 10,400  Level FAA TRACON SMA TRACON (SMA)
Tue 10:44:36 AM 42.1075 -83.0011 57° Northeast 382 440 10,900 1,800 Climbing FAA TRACON SMA TRACON (SMA)
Tue 10:44:56 AM 42.1303 -82.9536 57° Northeast 389 448 11,600 1,950 Climbing FAA TRACON SMA TRACON (SMA)
Tue 10:45:00 AM 42.3657 -82.3825 94° East  Level FlightAware Approximate
Tue 10:45:16 AM 42.1472 -82.9167 58° Northeast 396 456 12,200  Level FAA TRACON SMA TRACON (SMA)
Tue 10:45:35 AM 42.1672 -82.8761 56° Northeast 397 457 12,900 2,000 Climbing FAA TRACON SMA TRACON (SMA)
Tue 10:45:55 AM 42.1861 -82.8372 57° Northeast 401 461 13,500 1,950 Climbing FAA TRACON SMA TRACON (SMA)
Tue 10:46:15 AM 42.2083 -82.7922 56° Northeast 403 464 14,200 2,100 Climbing FAA TRACON SMA TRACON (SMA)
Tue 10:46:35 AM 42.2281 -82.7494 58° Northeast 403 464 14,900 1,950 Climbing FAA TRACON SMA TRACON (SMA)
Tue 10:46:55 AM 42.2467 -82.7103 57° Northeast 401 461 15,500 1,950 Climbing FAA TRACON SMA TRACON (SMA)
Tue 10:47:15 AM 42.2681 -82.6653 57° Northeast 403 464 16,200 1,950 Climbing FAA TRACON SMA TRACON (SMA)
Tue 10:47:35 AM 42.2886 -82.6222 57° Northeast 404 465 16,800 1,650 Climbing FAA TRACON SMA TRACON (SMA)
Tue 10:47:55 AM 42.3072 -82.5831 57° Northeast 403 464 17,300 1,317 Climbing FAA TRACON SMA TRACON (SMA)
Tue 10:48:16 AM 42.3294 -82.5361 57° Northeast 408 470 17,700 878 Climbing FAA TRACON SMA TRACON (SMA)
Tue 10:48:36 AM 42.3506 -82.4922 57° Northeast 418 481 17,900 900 Climbing FAA TRACON SMA TRACON (SMA)
Tue 10:48:56 AM 42.3658 -82.4336 71° East 434 499 18,300 1,050 Climbing FAA TRACON SMA TRACON (SMA)
Tue 10:49:16 AM 42.3667 -82.3875 89° East 442 509 18,600 1,050 Climbing FAA TRACON SMA TRACON (SMA)
Tue 10:49:36 AM 42.3642 -82.3319 93° East 442 509 19,000 1,050 Climbing FAA TRACON SMA TRACON (SMA)
Tue 10:49:56 AM 42.3611 -82.2672 94° East 447 514 19,300 900 Climbing FAA TRACON SMA TRACON (SMA)
Tue 10:50:16 AM 42.3592 -82.2208 93° East 449 517 19,600 750 Climbing FAA TRACON SMA TRACON (SMA)
Tue 10:50:36 AM 42.3586 -82.1856 91° East 451 519 19,800 1,029 Climbing FAA TRACON SMA TRACON (SMA)
Tue 10:50:51 AM 42.3542 -82.1117 95° East 431 496 20,200 1,120 Climbing Cleveland Center
Tue 10:51:51 AM 42.3458 -81.9400 94° East 446 513 21,200 1,000 Climbing Cleveland Center
Tue 10:52:51 AM 42.3394 -81.7686 93° East 459 528 22,200 1,000 Climbing Cleveland Center
Tue 10:53:51 AM 42.3306 -81.5942 94° East 459 528 23,200 1,000 Climbing Cleveland Center
Tue 10:54:51 AM 42.3236 -81.4228 93° East 459 528 24,200 1,050 Climbing Cleveland Center
Tue 10:55:51 AM 42.3144 -81.2542 94° East 459 528 25,300 1,050 Climbing Cleveland Center
Tue 10:56:51 AM 42.3050 -81.0772 94° East 454 522 26,300 800 Climbing Cleveland Center
Tue 10:57:51 AM 42.2992 -80.9256 93° East 461 531 26,900 550 Climbing Cleveland Center
Tue 10:58:51 AM 42.2892 -80.7517 94° East 461 531 27,400 500 Climbing Cleveland Center
Tue 10:59:51 AM 42.2767 -80.5747 95° East 466 536 27,900 500 Climbing Cleveland Center
Tue 11:00:51 AM 42.2683 -80.3953 94° East 466 536 28,400 500 Climbing Cleveland Center
Tue 11:01:51 AM 42.2575 -80.2186 95° East 466 536 28,900 300 Climbing Cleveland Center
Tue 11:02:51 AM 42.2464 -80.0250 94° East 466 536 29,000 50 Climbing Cleveland Center
Tue 11:03:51 AM 42.2744 -79.8453 78° East 472 543 29,000  Level Cleveland Center
Tue 11:04:51 AM 42.3211 -79.6706 70° East 480 552 29,000  Level Cleveland Center
Tue 11:05:51 AM 42.3675 -79.4956 70° East 486 559 29,000  Level Cleveland Center
Tue 11:06:51 AM 42.4117 -79.3178 71° East 491 565 29,000  Level Cleveland Center
Tue 11:07:51 AM 42.4475 -79.1736 71° East 491 565 29,000  Level Cleveland Center
Tue 11:08:51 AM 42.4992 -78.9781 70° East 491 565 29,000  Level Cleveland Center
Tue 11:09:51 AM 42.5528 -78.8075 67° East 491 565 29,000  Level Cleveland Center
Tue 11:10:51 AM 42.6189 -78.6419 61° Northeast 486 559 29,000  Level Cleveland Center
Tue 11:11:51 AM 42.6892 -78.4817 59° Northeast 491 565 29,000  Level Cleveland Center
Tue 11:12:51 AM 42.7547 -78.3156 62° Northeast 496 571 29,000  Level Cleveland Center
Tue 11:13:51 AM 42.8203 -78.1489 62° Northeast 496 571 29,000  Level Cleveland Center
Tue 11:14:51 AM 42.8875 -77.9847 61° Northeast 496 571 29,000  Level Cleveland Center
Tue 11:15:51 AM 42.9564 -77.8144 61° Northeast 496 571 29,000  Level Cleveland Center
Tue 11:16:51 AM 43.0289 -77.6294 62° Northeast 501 577 29,000  Level Cleveland Center
Tue 11:17:51 AM 43.0953 -77.4556 62° Northeast 501 577 29,000  Level Cleveland Center
Tue 11:19:49 AM 43.1333 -77.0814 82° East 493 567 29,000  Level Boston Center
Tue 11:20:51 AM 43.1536 -76.8892 82° East 503 579 29,000  Level Boston Center
Tue 11:21:50 AM 43.1733 -76.6969 82° East 508 585 29,000  Level Boston Center
Tue 11:22:50 AM 43.1950 -76.5047 81° East 508 585 29,000  Level Boston Center
Tue 11:23:51 AM 43.2122 -76.3092 83° East 513 590 29,000  Level Boston Center
Tue 11:24:50 AM 43.2333 -76.1111 82° East 518 596 29,000  Level Boston Center
Tue 11:25:51 AM 43.2500 -75.9153 83° East 518 596 29,000  Level Boston Center
Tue 11:26:49 AM 43.2681 -75.7222 83° East 518 596 29,000 -51 Level Boston Center
Tue 11:27:49 AM 43.2861 -75.5264 83° East 518 596 28,900 -586 Descending Boston Center
Tue 11:29:02 AM 43.3019 -75.3161 84° East 518 596 27,700 -985 Descending Boston Center
Tue 11:30:03 AM 43.3214 -75.1256 82° East 513 590 26,700 -992 Descending Boston Center
Tue 11:31:03 AM 43.3358 -74.9408 84° East 500 575 25,700 -942 Descending Boston Center
Tue 11:32:04 AM 43.3500 -74.7614 84° East 486 559 24,800 -958 Descending Boston Center
Tue 11:33:02 AM 43.3661 -74.5850 83° East 475 547 23,800 -1,008 Descending Boston Center
Tue 11:34:03 AM 43.3797 -74.4083 84° East 470 541 22,800 -1,053 Descending Boston Center
Tue 11:35:13 AM 43.3956 -74.1944 84° East 464 534 21,500 -1,062 Descending Boston Center
Tue 11:36:13 AM 43.4147 -74.0264 81° East 459 528 20,500 -992 Descending Boston Center
Tue 11:37:14 AM 43.4956 -73.9083 47° Northeast 409 471 19,500 -1,279 Descending Boston Center
Tue 11:38:15 AM 43.5944 -73.8306 30° Northeast 395 455 17,900 -1,537 Descending Boston Center
Tue 11:39:15 AM 43.6892 -73.7550 30° Northeast 395 455 16,400 -1,636 Descending Boston Center
Tue 11:40:16 AM 43.7919 -73.6825 27° Northeast 378 435 14,600 -1,729 Descending Boston Center
Tue 11:41:13 AM 43.8844 -73.6067 31° Northeast 372 428 13,000 -1,641 Descending Boston Center
Tue 11:42:13 AM 43.9769 -73.5392 28° Northeast 372 428 11,400 -1,537 Descending Boston Center
Tue 11:43:14 AM 44.0567 -73.4772 29° Northeast 358 412 9,900 -1,636 Descending Boston Center
Tue 11:44:14 AM 44.1281 -73.4206 30° Northeast 337 388 8,100 -1,785 Descending Boston Center
Tue 11:45:15 AM 44.2033 -73.3639 28° Northeast 312 359 6,300 -1,815 Descending Boston Center
Tue 11:46:13 AM 44.2808 -73.3100 26° Northeast 306 352 4,500 -1,678 Descending Boston Center
Tue 11:47:13 AM 44.3581 -73.3256 352° North 280 322 3,000 -793 Descending Boston Center
Tue 11:48:14 AM 44.4308 -73.3414 351° North 274 315 2,900 -98 Descending Boston Center

Login

Don't have an account? Register now (free) for customized features, flight alerts, and more!